Time;durP1;ratioP1;P1;durP2;ratioP2;P2;SDS_P1;SDS_P2;PMS_P1;PMS_P2;Temp;Humidity;BMP_temperature;BMP_pressure;BME280_temperature;BME280_humidity;BME280_pressure;Samples;Min_cycle;Max_cycle;Signal;HPM_P1;HPM_P2
2022/05/31 00:00:59;;;;;;;6.43;3.50;;;;;;;7.67;95.61;101505.47;2079238;28;43183;-68
2022/05/31 00:02:04;;;;;;;4.72;2.83;;;;;;;7.65;95.49;101500.13;2078850;28;45230;-69
2022/05/31 00:03:06;;;;;;;4.43;3.47;;;;;;;7.65;95.27;101502.81;2071599;28;23080;-69
2022/05/31 00:04:08;;;;;;;5.32;3.33;;;;;;;7.63;95.53;101497.47;2071202;28;44311;-69
2022/05/31 00:05:11;;;;;;;6.65;3.55;;;;;;;7.63;95.27;101493.94;2071779;28;44634;-68
2022/05/31 00:06:14;;;;;;;4.80;3.10;;;;;;;7.61;94.89;101501.03;2071720;28;28131;-69
2022/05/31 00:07:19;;;;;;;4.22;3.05;;;;;;;7.60;95.36;101507.25;2071345;28;46585;-69
2022/05/31 00:08:21;;;;;;;5.35;3.38;;;;;;;7.58;95.16;101498.38;2071507;28;43819;-68
2022/05/31 00:09:24;;;;;;;3.58;2.55;;;;;;;7.56;95.20;101501.03;2071059;28;40743;-69
2022/05/31 00:10:26;;;;;;;4.10;2.67;;;;;;;7.54;95.07;101502.81;2072474;28;44255;-69
2022/05/31 00:11:30;;;;;;;4.07;3.58;;;;;;;7.52;95.25;101506.34;2073938;28;44533;-69
2022/05/31 00:12:33;;;;;;;4.60;3.10;;;;;;;7.50;95.37;101498.41;2073862;28;44778;-68
2022/05/31 00:13:34;;;;;;;3.65;2.35;;;;;;;7.50;95.63;101502.81;2071672;28;43331;-68
2022/05/31 00:14:38;;;;;;;3.63;2.38;;;;;;;7.48;95.15;101500.16;2071660;28;33562;-69
2022/05/31 00:15:43;;;;;;;5.20;3.20;;;;;;;7.45;95.07;101501.06;2071555;28;43315;-68
2022/05/31 00:16:45;;;;;;;4.93;3.25;;;;;;;7.46;95.78;101496.59;2071479;28;45841;-69
2022/05/31 00:17:49;;;;;;;5.75;2.35;;;;;;;7.46;95.50;101499.25;2071235;28;45265;-69
2022/05/31 00:18:50;;;;;;;5.60;2.75;;;;;;;7.45;95.36;101498.38;2071613;28;43997;-68
2022/05/31 00:19:53;;;;;;;5.22;2.60;;;;;;;7.45;95.52;101498.38;2071615;28;45600;-68
2022/05/31 00:20:57;;;;;;;4.32;3.05;;;;;;;7.44;95.43;101493.06;2072360;28;20128;-67
2022/05/31 00:22:14;;;;;;;7.60;3.58;;;;;;;7.45;95.62;101494.84;2072667;28;21357;-68
2022/05/31 00:23:17;;;;;;;4.95;3.13;;;;;;;7.44;95.99;101499.25;2071627;28;45444;-68
2022/05/31 00:24:21;;;;;;;4.97;2.83;;;;;;;7.46;96.03;101493.94;2070661;28;43296;-69
2022/05/31 00:25:23;;;;;;;3.80;3.17;;;;;;;7.45;96.09;101493.06;2063229;28;43360;-69
2022/05/31 00:26:25;;;;;;;8.07;3.45;;;;;;;7.46;96.11;101496.59;2070648;28;44958;-68
2022/05/31 00:27:28;;;;;;;5.47;3.05;;;;;;;7.45;96.18;101495.72;2071778;28;38290;-68
2022/05/31 00:28:32;;;;;;;3.88;2.97;;;;;;;7.47;95.94;101489.53;2071326;28;46004;-69
2022/05/31 00:29:34;;;;;;;5.05;3.95;;;;;;;7.47;96.03;101497.50;2071636;28;44694;-69
2022/05/31 00:30:37;;;;;;;5.82;3.42;;;;;;;7.51;96.07;101493.94;2072176;28;20050;-69
2022/05/31 00:31:44;;;;;;;5.07;4.00;;;;;;;7.51;96.50;101494.81;2071641;28;45394;-68
2022/05/31 00:32:50;;;;;;;3.85;3.28;;;;;;;7.53;96.68;101498.38;2071396;28;42320;-68
2022/05/31 00:33:53;;;;;;;6.22;3.58;;;;;;;7.54;96.12;101489.50;2072151;28;24661;-69
2022/05/31 00:34:58;;;;;;;4.90;3.33;;;;;;;7.54;96.21;101497.50;2071230;28;44937;-69
2022/05/31 00:36:00;;;;;;;5.57;3.40;;;;;;;7.55;95.97;101496.59;2071912;28;20031;-68
2022/05/31 00:37:03;;;;;;;4.40;2.95;;;;;;;7.56;96.35;101494.81;2063821;28;20043;-69
2022/05/31 00:38:06;;;;;;;4.53;3.17;;;;;;;7.54;96.37;101493.94;2072348;28;20138;-68
2022/05/31 00:39:10;;;;;;;3.97;3.08;;;;;;;7.51;96.16;101492.16;2071255;28;20116;-69
2022/05/31 00:40:17;;;;;;;4.88;3.40;;;;;;;7.51;96.44;101494.81;2070946;28;43331;-69
2022/05/31 00:41:25;;;;;;;4.50;3.50;;;;;;;7.52;96.31;101495.69;2079976;28;26332;-68
2022/05/31 00:42:26;;;;;;;7.13;4.20;;;;;;;7.51;96.44;101500.16;2072728;28;29673;-68
2022/05/31 00:43:28;;;;;;;5.63;3.72;;;;;;;7.49;96.25;101495.72;2071361;28;40847;-68
2022/05/31 00:44:32;;;;;;;3.63;2.80;;;;;;;7.49;96.29;101496.59;2080045;28;20112;-68
2022/05/31 00:45:59;;;;;;;3.63;3.05;;;;;;;7.48;96.09;101497.47;2070822;28;35708;-68
2022/05/31 00:47:31;;;;;;;4.93;3.08;;;;;;;7.47;96.32;101493.06;2071015;28;43936;-68
2022/05/31 00:48:55;;;;;;;5.15;3.08;;;;;;;7.47;96.13;101494.84;2064284;28;45268;-68
2022/05/31 00:50:08;;;;;;;6.60;2.92;;;;;;;7.51;97.08;101492.16;2070449;28;45503;-68
2022/05/31 00:51:15;;;;;;;4.13;3.40;;;;;;;7.55;97.17;101498.38;2066687;28;44614;-68
2022/05/31 00:52:27;;;;;;;4.65;3.10;;;;;;;7.57;96.58;101492.16;2071328;28;46527;-68
2022/05/31 00:53:35;;;;;;;3.72;3.00;;;;;;;7.60;96.46;101496.59;2078160;28;20041;-69
2022/05/31 00:54:42;;;;;;;4.07;3.25;;;;;;;7.60;95.95;101497.47;2071387;28;20051;-69
2022/05/31 00:56:11;;;;;;;7.25;3.20;;;;;;;7.61;95.98;101485.94;2064640;28;36647;-68
2022/05/31 00:57:13;;;;;;;3.90;2.80;;;;;;;7.62;96.34;101489.47;2075153;28;45048;-68
2022/05/31 00:58:32;;;;;;;5.95;3.45;;;;;;;7.61;95.90;101491.25;2070794;28;20078;-68
2022/05/31 00:59:43;;;;;;;3.42;3.00;;;;;;;7.61;96.23;101490.38;2064710;28;42393;-68
2022/05/31 01:00:45;;;;;;;3.53;2.90;;;;;;;7.60;96.00;101488.59;2071589;28;39584;-68
2022/05/31 01:01:52;;;;;;;2.83;2.05;;;;;;;7.59;96.04;101493.03;2070132;28;46076;-68
2022/05/31 01:02:58;;;;;;;4.00;2.13;;;;;;;7.57;95.59;101494.84;2071205;28;44034;-68
2022/05/31 01:04:04;;;;;;;4.78;2.72;;;;;;;7.57;96.00;101494.84;2071262;28;20099;-68
2022/05/31 01:05:08;;;;;;;3.45;2.45;;;;;;;7.54;95.61;101494.81;2071819;28;20043;-66
2022/05/31 01:06:12;;;;;;;2.40;1.98;;;;;;;7.53;95.85;101492.16;2070313;28;43996;-69
2022/05/31 01:07:15;;;;;;;4.45;2.80;;;;;;;7.51;95.83;101492.16;2072167;28;20826;-68
2022/05/31 01:08:17;;;;;;;3.08;2.30;;;;;;;7.50;95.77;101486.81;2071291;28;20128;-68
2022/05/31 01:09:45;;;;;;;4.60;2.85;;;;;;;7.45;95.56;101489.50;2071466;28;20812;-68
2022/05/31 01:11:05;;;;;;;6.95;4.13;;;;;;;7.46;96.06;101488.59;2071966;28;20047;-68
2022/05/31 01:12:33;;;;;;;6.40;3.60;;;;;;;7.45;96.10;101492.19;2072349;28;20035;-68
2022/05/31 01:13:54;;;;;;;2.53;2.33;;;;;;;7.45;96.21;101484.19;2072103;28;21398;-68
2022/05/31 01:15:19;;;;;;;3.65;2.55;;;;;;;7.42;96.34;101484.19;2072269;28;20050;-67
2022/05/31 01:16:58;;;;;;;5.45;3.10;;;;;;;7.40;96.09;101486.84;2072215;28;20054;-68
2022/05/31 01:18:39;;;;;;;4.43;2.53;;;;;;;7.40;96.46;101488.63;2071044;28;20043;-68
2022/05/31 01:20:18;;;;;;;5.30;3.30;;;;;;;7.42;96.43;101484.19;2103641;22;20042;-72
2022/05/31 01:21:26;;;;;;;5.43;3.22;;;;;;;7.44;96.71;101487.72;2079726;28;20053;-73
2022/05/31 01:22:56;;;;;;;5.15;2.47;;;;;;;7.46;96.55;101483.28;2073606;28;20042;-73
2022/05/31 01:24:15;;;;;;;5.05;3.28;;;;;;;7.44;96.63;101479.72;2063362;28;20962;-72
2022/05/31 01:25:25;;;;;;;4.60;3.50;;;;;;;7.47;96.39;101481.53;2067584;28;36247;-73
2022/05/31 01:26:37;;;;;;;3.88;2.75;;;;;;;7.47;96.57;101482.41;2076394;28;45564;-72
2022/05/31 01:27:55;;;;;;;3.92;2.88;;;;;;;7.45;96.03;101484.19;2079724;28;26016;-73
2022/05/31 01:29:23;;;;;;;;;;;;;;;7.43;96.22;101480.66;2076932;28;21073;-72
2022/05/31 01:30:30;;;;;;;3.25;2.80;;;;;;;7.42;96.17;101485.06;2071411;28;45617;-73
2022/05/31 01:31:36;;;;;;;2.92;2.50;;;;;;;7.40;96.19;101486.84;2078392;28;46019;-73
2022/05/31 01:32:46;;;;;;;3.88;2.83;;;;;;;7.39;96.01;101493.09;2078448;28;30377;-73
2022/05/31 01:33:58;;;;;;;;;;;;;;;7.36;96.24;101481.53;2079375;28;31690;-72
2022/05/31 01:35:17;;;;;;;5.97;3.00;;;;;;;7.34;96.64;101480.63;2077460;28;42869;-72
2022/05/31 01:36:29;;;;;;;6.22;3.38;;;;;;;7.33;96.25;101485.06;2071077;28;46034;-72
2022/05/31 01:37:58;;;;;;;5.63;3.90;;;;;;;7.34;96.49;101478.88;2071339;28;20802;-73
2022/05/31 01:39:10;;;;;;;5.35;3.10;;;;;;;7.35;96.46;101479.75;2079488;28;20049;-72
2022/05/31 01:40:24;;;;;;;5.45;3.33;;;;;;;7.34;96.66;101480.63;2069008;28;45836;-71
2022/05/31 01:41:57;;;;;;;5.35;4.72;;;;;;;7.34;96.69;101489.53;2071080;28;28397;-72
2022/05/31 01:42:58;;;;;;;4.18;3.78;;;;;;;7.37;96.86;101484.19;2078811;28;44365;-71
2022/05/31 01:44:05;;;;;;;5.07;4.32;;;;;;;7.37;96.87;101485.97;2080219;28;36909;-73
2022/05/31 01:45:22;;;;;;;4.70;3.95;;;;;;;7.34;96.71;101476.22;2071169;28;41123;-73
2022/05/31 01:46:33;;;;;;;5.72;4.47;;;;;;;7.33;96.80;101474.41;2070533;28;43481;-74
2022/05/31 01:47:36;;;;;;;6.05;3.88;;;;;;;7.30;96.51;101490.41;2071879;28;46004;-74
2022/05/31 01:48:41;;;;;;;3.88;3.47;;;;;;;7.28;96.80;101481.53;2078339;28;44097;-73
2022/05/31 01:49:49;;;;;;;6.38;3.63;;;;;;;7.23;96.41;101478.88;2070877;28;20804;-73
2022/05/31 01:50:51;;;;;;;5.07;3.92;;;;;;;7.20;96.23;101478.88;2065936;28;42303;-73
2022/05/31 01:51:53;;;;;;;5.03;3.97;;;;;;;7.19;97.28;101486.84;2063235;28;43394;-73
2022/05/31 01:52:56;;;;;;;6.68;4.45;;;;;;;7.19;96.59;101469.09;2071460;28;20765;-73
2022/05/31 01:53:58;;;;;;;3.95;3.25;;;;;;;7.19;96.75;101477.09;2078216;28;36888;-71
2022/05/31 01:55:08;;;;;;;5.35;4.85;;;;;;;7.17;97.27;101484.19;2062530;28;20890;-73
2022/05/31 01:56:11;;;;;;;6.05;5.30;;;;;;;7.18;97.09;101485.97;2056388;28;20093;-72
2022/05/31 01:57:16;;;;;;;10.52;7.80;;;;;;;7.30;97.97;101476.19;2055454;28;33989;-72
2022/05/31 01:58:28;;;;;;;9.32;6.93;;;;;;;7.30;98.03;101481.53;2061706;28;43124;-73
2022/05/31 01:59:36;;;;;;;8.32;6.57;;;;;;;7.32;97.56;101478.00;2066329;28;32473;-72
2022/05/31 02:00:38;;;;;;;11.52;6.28;;;;;;;7.38;98.27;101477.97;2070529;28;20082;-72
2022/05/31 02:01:41;;;;;;;6.43;5.57;;;;;;;7.35;97.96;101477.97;2064496;28;20046;-72
2022/05/31 02:02:51;;;;;;;7.00;6.00;;;;;;;7.36;97.88;101478.88;2070450;28;31738;-72
2022/05/31 02:03:53;;;;;;;8.23;5.80;;;;;;;7.35;98.07;101472.63;2070830;28;33091;-73
2022/05/31 02:04:55;;;;;;;9.00;5.38;;;;;;;7.34;97.69;101477.97;2064454;28;20031;-71
2022/05/31 02:05:59;;;;;;;6.70;5.00;;;;;;;7.32;97.57;101471.75;2071207;28;20854;-70
2022/05/31 02:07:18;;;;;;;6.53;5.22;;;;;;;7.29;97.66;101471.78;2078944;28;20073;-70
2022/05/31 02:08:23;;;;;;;5.43;4.93;;;;;;;7.25;97.32;101470.91;2071826;28;20038;-72
2022/05/31 02:09:25;;;;;;;5.60;5.00;;;;;;;7.23;97.17;101475.31;2071349;28;20038;-71
2022/05/31 02:10:32;;;;;;;7.68;5.65;;;;;;;7.20;97.37;101483.31;2070647;28;20038;-73
2022/05/31 02:11:37;;;;;;;6.70;5.38;;;;;;;7.18;97.03;101474.44;2071421;28;20057;-70
2022/05/31 02:12:48;;;;;;;6.38;5.47;;;;;;;7.15;97.35;101470.00;2062271;28;20820;-73
2022/05/31 02:14:24;;;;;;;7.07;6.05;;;;;;;7.11;97.21;101481.53;2052726;28;20047;-71
2022/05/31 02:15:26;;;;;;;9.48;6.60;;;;;;;7.09;97.42;101478.00;2046417;28;20040;-71
2022/05/31 02:17:07;;;;;;;7.85;6.05;;;;;;;7.13;97.60;101477.09;2047457;28;20052;-73
2022/05/31 02:20:14;;;;;;;9.05;6.88;;;;;;;7.14;97.49;101470.91;2055737;28;20055;-72
2022/05/31 02:21:16;;;;;;;8.80;7.00;;;;;;;7.18;97.80;101475.31;2044775;28;43059;-72
2022/05/31 02:22:26;;;;;;;6.93;6.22;;;;;;;7.20;97.94;101470.00;2046664;28;20051;-72
2022/05/31 02:23:28;;;;;;;10.48;7.68;;;;;;;7.22;97.80;101476.22;2064639;28;20043;-73
2022/05/31 02:24:30;;;;;;;12.75;7.63;;;;;;;7.28;98.28;101475.31;2079062;28;20539;-72
2022/05/31 02:25:33;;;;;;;10.70;8.05;;;;;;;7.29;97.95;101461.13;2062470;28;20089;-72
2022/05/31 02:26:36;;;;;;;7.20;6.35;;;;;;;7.33;97.65;101468.22;2063568;28;20055;-72
2022/05/31 02:27:40;;;;;;;9.98;7.65;;;;;;;7.36;97.82;101462.88;2063289;28;20161;-73
2022/05/31 02:28:42;;;;;;;10.30;7.88;;;;;;;7.37;97.59;101467.31;2070257;28;44688;-72
2022/05/31 02:29:44;;;;;;;11.63;6.65;;;;;;;7.40;97.98;101464.66;2070036;28;30758;-73
2022/05/31 02:30:45;;;;;;;10.88;7.43;;;;;;;7.39;97.28;101471.78;2070647;28;39664;-72
2022/05/31 02:31:47;;;;;;;7.60;6.25;;;;;;;7.40;97.05;101470.84;2077974;28;43928;-72
2022/05/31 02:32:49;;;;;;;11.45;7.80;;;;;;;7.44;97.43;101466.41;2073077;28;20168;-72
2022/05/31 02:33:53;;;;;;;8.35;7.45;;;;;;;7.45;97.10;101463.75;2062195;28;44388;-72
2022/05/31 02:34:55;;;;;;;10.45;7.95;;;;;;;7.47;97.32;101466.41;2071690;28;20038;-72
2022/05/31 02:35:57;;;;;;;12.20;7.40;;;;;;;7.50;96.88;101461.09;2070459;28;20046;-72
2022/05/31 02:36:59;;;;;;;8.52;7.10;;;;;;;7.52;96.98;101464.63;2071168;28;20172;-72
2022/05/31 02:38:01;;;;;;;9.30;7.40;;;;;;;7.54;96.60;101468.19;2070930;28;20082;-72
2022/05/31 02:39:04;;;;;;;8.18;7.10;;;;;;;7.58;96.85;101461.94;2070742;28;27746;-72
2022/05/31 02:40:12;;;;;;;8.27;7.28;;;;;;;7.58;96.51;101461.06;2062410;28;20059;-72
2022/05/31 02:41:14;;;;;;;8.93;7.80;;;;;;;7.58;96.76;101463.72;2063403;28;46668;-72
2022/05/31 02:42:17;;;;;;;8.50;7.18;;;;;;;7.57;96.58;101460.19;2070725;28;21302;-72
2022/05/31 02:43:19;;;;;;;8.30;6.78;;;;;;;7.58;96.06;101458.41;2070912;28;32169;-72
2022/05/31 02:44:21;;;;;;;9.45;6.68;;;;;;;7.58;96.20;101456.63;2079166;28;20046;-72
2022/05/31 02:45:24;;;;;;;8.38;7.10;;;;;;;7.59;96.52;101460.16;2062621;28;20793;-72
2022/05/31 02:46:28;;;;;;;7.25;6.50;;;;;;;7.59;96.16;101455.75;2062618;28;20152;-72
2022/05/31 02:47:32;;;;;;;9.57;7.28;;;;;;;7.61;96.00;101455.75;2063297;28;20039;-72
2022/05/31 02:48:34;;;;;;;10.65;7.45;;;;;;;7.61;96.23;101448.63;2070979;28;25418;-72
2022/05/31 02:49:39;;;;;;;7.43;6.18;;;;;;;7.63;96.08;101460.16;2062908;28;20137;-72
2022/05/31 02:50:40;;;;;;;11.38;7.00;;;;;;;7.62;96.15;101450.38;2070091;28;42427;-72
2022/05/31 02:51:45;;;;;;;10.23;7.35;;;;;;;7.63;95.69;101452.16;2070721;28;20863;-72
2022/05/31 02:52:47;;;;;;;8.32;6.72;;;;;;;7.63;95.63;101451.28;2062536;28;20106;-72
2022/05/31 02:53:53;;;;;;;8.73;6.63;;;;;;;7.61;95.57;101445.97;2064002;28;20891;-72
2022/05/31 02:55:08;;;;;;;9.40;6.85;;;;;;;7.63;95.42;101452.16;2078428;28;20052;-72
2022/05/31 02:56:30;;;;;;;10.88;7.28;;;;;;;7.62;95.61;101450.38;2043356;28;21015;-72
2022/05/31 02:58:07;;;;;;;9.85;6.95;;;;;;;7.66;96.06;101448.59;2078142;28;20046;-72
2022/05/31 02:59:35;;;;;;;6.90;5.90;;;;;;;7.63;95.45;101444.19;2070848;28;20050;-72
2022/05/31 03:00:57;;;;;;;7.97;6.47;;;;;;;7.63;95.69;101446.84;2071864;28;20055;-72
2022/05/31 03:02:18;;;;;;;6.88;6.15;;;;;;;7.63;95.42;101452.16;2071137;28;20923;-72
2022/05/31 03:03:38;;;;;;;10.13;7.05;;;;;;;7.66;95.43;101448.59;2079068;28;20046;-72
2022/05/31 03:04:59;;;;;;;8.65;7.25;;;;;;;7.70;94.53;101441.47;2073937;28;20081;-72
2022/05/31 03:06:23;;;;;;;9.20;7.18;;;;;;;7.69;94.59;101445.06;2071434;28;20050;-72
2022/05/31 03:07:37;;;;;;;9.50;7.13;;;;;;;7.68;94.87;101441.50;2071588;28;20041;-72
2022/05/31 03:08:45;;;;;;;8.93;6.43;;;;;;;7.69;94.80;101453.03;2071899;28;20772;-72
2022/05/31 03:09:49;;;;;;;8.13;7.22;;;;;;;7.73;94.80;101446.81;2063515;28;20292;-72
2022/05/31 03:10:54;;;;;;;10.55;7.45;;;;;;;7.70;94.82;101438.81;2062563;28;20858;-72
2022/05/31 03:12:11;;;;;;;8.55;6.60;;;;;;;7.71;94.46;101435.28;2071152;28;20072;-73
2022/05/31 03:13:19;;;;;;;7.88;6.68;;;;;;;7.71;94.37;101438.81;2062124;28;29939;-73
2022/05/31 03:14:40;;;;;;;11.57;7.15;;;;;;;7.73;94.69;101442.34;2057709;28;46217;-72
2022/05/31 03:15:43;;;;;;;9.38;7.07;;;;;;;7.74;93.98;101443.25;2065365;28;20051;-72
2022/05/31 03:16:56;;;;;;;7.97;7.13;;;;;;;7.74;94.43;101449.47;2063262;28;20046;-72
2022/05/31 03:18:10;;;;;;;8.77;6.60;;;;;;;7.74;94.14;101454.81;2064569;28;20035;-72
2022/05/31 03:19:19;;;;;;;10.55;7.38;;;;;;;7.75;94.44;101447.69;2063511;28;42592;-72
2022/05/31 03:20:44;;;;;;;9.77;7.63;;;;;;;7.74;94.07;101448.59;2072664;28;28162;-73
2022/05/31 03:21:53;;;;;;;10.48;7.65;;;;;;;7.75;94.66;101445.03;2070013;28;44374;-72
2022/05/31 03:23:04;;;;;;;8.07;7.25;;;;;;;7.74;94.43;101444.13;2076396;28;20096;-72
2022/05/31 03:24:14;;;;;;;8.63;7.00;;;;;;;7.72;94.27;101439.72;2064935;28;20113;-72
2022/05/31 03:25:21;;;;;;;7.85;6.68;;;;;;;7.71;94.31;101444.13;2074825;28;43735;-73
2022/05/31 03:26:26;;;;;;;7.70;6.93;;;;;;;7.72;94.11;101450.38;2077693;28;44363;-72
2022/05/31 03:27:28;;;;;;;9.27;6.75;;;;;;;7.71;94.29;101443.25;2071239;28;43443;-72
2022/05/31 03:28:33;;;;;;;8.75;7.10;;;;;;;7.72;94.98;101442.38;2064569;28;31294;-72
2022/05/31 03:29:40;;;;;;;10.27;7.43;;;;;;;7.78;94.94;101443.22;2072594;28;20034;-72
2022/05/31 03:30:42;;;;;;;8.98;6.80;;;;;;;7.78;94.82;101439.69;2071871;28;43475;-72
2022/05/31 03:31:45;;;;;;;9.00;7.38;;;;;;;7.80;94.21;101444.09;2064796;28;21010;-72
2022/05/31 03:33:15;;;;;;;9.05;6.70;;;;;;;7.83;94.20;101443.22;2071245;28;46215;-71
2022/05/31 03:34:37;;;;;;;10.80;7.97;;;;;;;7.91;95.23;101438.72;2087996;28;20111;-72
2022/05/31 03:35:41;;;;;;;9.27;7.38;;;;;;;7.91;94.25;101438.72;2082536;28;20140;-72
2022/05/31 03:36:57;;;;;;;8.50;7.68;;;;;;;7.92;94.40;101448.53;2072200;28;20173;-71
2022/05/31 03:37:59;;;;;;;10.65;7.70;;;;;;;7.94;94.00;101444.06;2071934;28;20157;-72
2022/05/31 03:39:14;;;;;;;8.18;7.25;;;;;;;7.96;94.08;101436.94;2090160;28;20037;-72
2022/05/31 03:40:56;;;;;;;9.43;7.13;;;;;;;7.99;93.82;101442.28;2072070;28;20046;-72
2022/05/31 03:41:37;;;;;;;11.02;7.63;;;;;;;8.01;93.99;101442.28;2077578;28;20037;-71
2022/05/31 03:42:40;;;;;;;8.95;7.68;;;;;;;8.04;93.42;101452.94;2088219;28;20053;-72
2022/05/31 03:43:43;;;;;;;10.80;8.07;;;;;;;8.06;93.71;101440.47;2088095;28;32617;-70
2022/05/31 03:44:54;;;;;;;10.07;6.50;;;;;;;8.08;93.50;101441.34;2086705;28;20902;-72
2022/05/31 03:46:16;;;;;;;9.13;6.65;;;;;;;8.11;93.32;101443.09;2072720;28;20047;-72
2022/05/31 03:47:36;;;;;;;11.30;7.65;;;;;;;8.13;92.65;101441.31;2072702;28;20047;-72
2022/05/31 03:49:08;;;;;;;8.00;6.93;;;;;;;8.15;92.45;101443.09;2067279;28;20035;-72
2022/05/31 03:50:28;;;;;;;10.13;6.90;;;;;;;8.16;92.22;101447.50;2072858;28;20034;-72
2022/05/31 03:51:30;;;;;;;8.57;7.03;;;;;;;8.17;92.10;101443.09;2088363;28;20046;-72
2022/05/31 03:52:39;;;;;;;11.30;6.55;;;;;;;8.18;91.85;101443.09;2070217;28;21088;-72
2022/05/31 03:53:40;;;;;;;8.55;7.07;;;;;;;8.19;91.72;101443.97;2057036;28;20051;-72
2022/05/31 03:54:45;;;;;;;10.25;7.20;;;;;;;8.19;92.31;101451.97;2063956;28;20156;-71
2022/05/31 03:55:49;;;;;;;9.23;7.20;;;;;;;8.20;91.71;101445.72;2063856;28;27979;-70
2022/05/31 03:56:53;;;;;;;8.10;6.47;;;;;;;8.20;92.08;101440.38;2072713;28;20935;-72
2022/05/31 03:57:55;;;;;;;6.55;5.50;;;;;;;8.21;91.42;101442.16;2073690;28;20043;-71
2022/05/31 03:59:17;;;;;;;8.85;6.57;;;;;;;8.22;92.31;101446.63;2071629;28;20204;-71
2022/05/31 04:00:19;;;;;;;8.38;5.75;;;;;;;8.22;91.87;101446.63;2071096;28;41063;-71
2022/05/31 04:01:47;;;;;;;7.40;5.47;;;;;;;8.19;91.90;101442.19;2070781;28;20047;-70
2022/05/31 04:02:51;;;;;;;7.60;6.63;;;;;;;8.20;91.58;101443.06;2071701;28;20051;-71
2022/05/31 04:03:53;;;;;;;9.95;6.40;;;;;;;8.19;91.83;101441.28;2071357;28;40295;-71
2022/05/31 04:04:55;;;;;;;10.13;7.03;;;;;;;8.20;91.88;101448.38;2080566;28;20225;-71
2022/05/31 04:05:59;;;;;;;6.13;5.22;;;;;;;8.21;91.39;101447.50;2071714;28;20038;-71
2022/05/31 04:07:04;;;;;;;7.50;6.15;;;;;;;8.21;92.17;101442.16;2064229;28;20050;-70
2022/05/31 04:08:11;;;;;;;6.57;5.15;;;;;;;8.22;91.65;101441.28;2072278;28;20164;-71
2022/05/31 04:09:14;;;;;;;8.02;6.75;;;;;;;8.23;92.39;101446.59;2071456;28;20120;-71
2022/05/31 04:10:15;;;;;;;7.57;6.40;;;;;;;8.24;92.23;101444.84;2063749;28;20031;-70
2022/05/31 04:11:17;;;;;;;7.68;5.93;;;;;;;8.26;91.61;101448.38;2071442;28;20073;-71
2022/05/31 04:12:19;;;;;;;7.43;6.22;;;;;;;8.28;91.42;101453.69;2063758;28;20046;-71
2022/05/31 04:13:39;;;;;;;8.45;6.10;;;;;;;8.31;92.35;101454.56;2071963;28;20870;-71
2022/05/31 04:15:02;;;;;;;5.60;4.88;;;;;;;8.32;91.68;101453.66;2072623;28;20090;-71
2022/05/31 04:16:12;;;;;;;6.43;5.78;;;;;;;8.36;92.12;101460.78;2063570;28;20054;-71
2022/05/31 04:17:20;;;;;;;9.98;6.40;;;;;;;8.39;90.75;101459.84;2060080;28;20051;-70
2022/05/31 04:18:22;;;;;;;9.80;6.30;;;;;;;8.41;90.72;101460.72;2070902;28;42374;-71
2022/05/31 04:19:26;;;;;;;8.00;6.07;;;;;;;8.43;91.67;101452.75;2072417;28;20120;-71
2022/05/31 04:20:30;;;;;;;7.70;6.45;;;;;;;8.45;91.66;101470.53;2070532;28;48356;-70
2022/05/31 04:21:32;;;;;;;7.82;6.57;;;;;;;8.48;90.86;101466.97;2063995;28;20145;-71
2022/05/31 04:22:34;;;;;;;7.50;5.85;;;;;;;8.51;90.69;101458.94;2071990;28;20489;-71
2022/05/31 04:23:59;;;;;;;8.52;6.35;;;;;;;8.53;90.90;101463.38;2066298;28;20204;-70
2022/05/31 04:25:19;;;;;;;8.25;6.43;;;;;;;8.58;90.41;101455.34;2068880;28;20915;-70
2022/05/31 04:26:47;;;;;;;6.00;5.35;;;;;;;8.63;90.97;101453.50;2071853;28;20093;-70
2022/05/31 04:28:08;;;;;;;7.63;5.63;;;;;;;8.70;90.54;101462.38;2072367;28;20149;-72
2022/05/31 04:29:28;;;;;;;9.88;7.05;;;;;;;8.72;90.52;101453.47;2072358;28;20172;-72
2022/05/31 04:30:48;;;;;;;8.15;6.13;;;;;;;8.74;90.09;101464.09;2073056;28;20880;-72
2022/05/31 04:32:17;;;;;;;11.30;6.43;;;;;;;8.77;89.16;101462.34;2072191;28;20046;-72
2022/05/31 04:33:23;;;;;;;8.15;5.82;;;;;;;8.83;88.79;101460.50;2072764;28;20161;-72
2022/05/31 04:34:27;;;;;;;6.82;5.90;;;;;;;8.87;88.60;101462.25;2063710;28;20978;-72
2022/05/31 04:35:28;;;;;;;8.52;5.63;;;;;;;8.91;88.42;101458.66;2071062;28;32532;-71
2022/05/31 04:36:31;;;;;;;6.50;5.90;;;;;;;8.94;88.14;101466.66;2071596;28;20054;-70
2022/05/31 04:37:32;;;;;;;7.22;5.80;;;;;;;8.98;88.78;101460.38;2062992;28;41018;-70
2022/05/31 04:38:49;;;;;;;7.97;5.72;;;;;;;9.00;88.14;101465.72;2059069;28;20051;-71
2022/05/31 04:39:54;;;;;;;7.55;6.20;;;;;;;9.00;88.61;101461.25;2072002;28;20042;-72
2022/05/31 04:41:32;;;;;;;6.72;5.85;;;;;;;9.11;87.56;101461.16;2071282;28;20133;-70
2022/05/31 04:42:45;;;;;;;6.13;5.47;;;;;;;9.16;87.74;101462.91;2073033;28;20089;-70
2022/05/31 04:44:28;;;;;;;6.05;5.40;;;;;;;9.26;87.95;101466.38;2070950;28;20050;-70
2022/05/31 04:45:30;;;;;;;7.38;5.78;;;;;;;9.28;87.38;101461.03;2070336;28;20047;-71
2022/05/31 04:46:44;;;;;;;8.13;5.95;;;;;;;9.34;86.54;101460.97;2071452;28;20034;-71
2022/05/31 04:47:47;;;;;;;8.00;5.18;;;;;;;9.43;87.25;101460.88;2072072;28;20042;-70
2022/05/31 04:48:50;;;;;;;8.98;5.57;;;;;;;9.48;86.08;101469.75;2071004;28;20042;-70
2022/05/31 04:49:54;;;;;;;7.63;5.95;;;;;;;9.55;85.58;101470.56;2071499;28;22265;-70
2022/05/31 04:50:56;;;;;;;8.30;6.25;;;;;;;9.59;85.73;101463.41;2079244;28;20035;-71
2022/05/31 04:52:02;;;;;;;6.47;5.80;;;;;;;9.58;85.56;101467.84;2071538;28;20968;-71
2022/05/31 04:53:12;;;;;;;8.05;6.10;;;;;;;9.51;84.98;101464.38;2072537;28;21037;-71
2022/05/31 04:54:30;;;;;;;9.02;5.80;;;;;;;9.62;85.30;101466.94;2071156;28;20085;-70
2022/05/31 04:55:46;;;;;;;9.23;5.85;;;;;;;9.69;85.03;101465.06;2070327;28;21018;-70
2022/05/31 04:56:48;;;;;;;7.43;6.07;;;;;;;9.77;84.70;101455.19;2071715;28;20161;-71
2022/05/31 04:57:50;;;;;;;8.38;5.72;;;;;;;9.83;84.29;101457.75;2071505;28;20054;-70
2022/05/31 04:58:54;;;;;;;7.78;6.00;;;;;;;9.90;85.12;101464.81;2072311;28;20864;-71
2022/05/31 04:59:58;;;;;;;6.78;5.70;;;;;;;9.97;84.66;101460.28;2079815;28;20145;-71
2022/05/31 05:01:06;;;;;;;7.78;5.63;;;;;;;10.02;84.43;101463.78;2079787;28;20168;-71
2022/05/31 05:02:10;;;;;;;9.82;5.75;;;;;;;10.06;83.93;101462.84;2063971;28;20094;-70
2022/05/31 05:03:20;;;;;;;6.35;5.50;;;;;;;10.09;83.28;101464.63;2063508;28;20891;-71
2022/05/31 05:04:24;;;;;;;6.43;4.32;;;;;;;10.12;83.64;101464.56;2057648;28;24525;-71
2022/05/31 05:05:33;;;;;;;6.97;5.70;;;;;;;10.11;83.41;101462.81;2072429;28;20045;-71
2022/05/31 05:06:43;;;;;;;5.47;4.63;;;;;;;10.18;82.62;101463.63;2079629;28;20038;-70
2022/05/31 05:07:48;;;;;;;6.05;4.65;;;;;;;10.23;83.11;101461.75;2063184;28;20154;-71
2022/05/31 05:08:50;;;;;;;5.43;4.90;;;;;;;10.20;82.54;101457.31;2064847;28;20054;-71
2022/05/31 05:09:52;;;;;;;6.03;4.63;;;;;;;10.18;82.36;101460.94;2072558;28;20051;-71
2022/05/31 05:11:02;;;;;;;4.90;4.15;;;;;;;10.19;82.56;101460.00;2079723;28;20077;-71
2022/05/31 05:12:08;;;;;;;7.00;5.10;;;;;;;10.08;82.59;101461.03;2079220;28;20132;-71
2022/05/31 05:13:12;;;;;;;6.97;4.93;;;;;;;10.04;82.22;101461.97;2072013;28;20049;-70
2022/05/31 05:14:34;;;;;;;6.68;4.75;;;;;;;10.07;81.94;101461.94;2074106;28;20314;-71
2022/05/31 05:15:41;;;;;;;8.38;5.57;;;;;;;10.10;82.48;101461.00;2074906;28;20165;-71
2022/05/31 05:16:46;;;;;;;9.48;5.70;;;;;;;10.11;83.00;101462.81;2071941;28;20051;-71
2022/05/31 05:17:48;;;;;;;7.60;5.28;;;;;;;10.09;83.05;101460.13;2079546;28;20080;-71
2022/05/31 05:18:50;;;;;;;6.97;5.57;;;;;;;10.08;82.95;101461.03;2080096;28;20049;-71
2022/05/31 05:19:52;;;;;;;6.95;4.88;;;;;;;10.08;82.74;101461.03;2079412;28;20046;-71
2022/05/31 05:20:54;;;;;;;7.85;5.32;;;;;;;9.93;83.35;101462.09;2086781;28;44188;-71
2022/05/31 05:21:58;;;;;;;6.70;5.13;;;;;;;10.04;83.00;101461.09;2079544;28;21210;-70
2022/05/31 05:23:07;;;;;;;5.32;4.28;;;;;;;10.11;82.74;101461.00;2072081;28;20045;-71
2022/05/31 05:24:10;;;;;;;5.60;4.80;;;;;;;10.18;83.49;101459.13;2072521;28;20989;-72
2022/05/31 05:25:24;;;;;;;5.30;3.95;;;;;;;10.20;81.81;101454.66;2067957;28;20050;-70
2022/05/31 05:26:33;;;;;;;6.25;4.93;;;;;;;10.20;81.79;101451.97;2071133;28;20221;-70
2022/05/31 05:27:59;;;;;;;5.30;4.30;;;;;;;10.13;81.43;101455.63;2071507;28;21056;-70